Time;durP1;ratioP1;P1;durP2;ratioP2;P2;SDS_P1;SDS_P2;PMS_P1;PMS_P2;Temp;Humidity;BMP_temperature;BMP_pressure;BME280_temperature;BME280_humidity;BME280_pressure;Samples;Min_cycle;Max_cycle;Signal;HPM_P1;HPM_P2
2022/12/31 00:01:15;;;;;;;5.85;1.50;;;13.70;99.90;;;;;;5116396;28;20169;-57
2022/12/31 00:03:42;;;;;;;3.45;1.35;;;13.70;99.90;;;;;;5116355;27;20172;-57
2022/12/31 00:06:22;;;;;;;4.50;1.35;;;13.70;99.90;;;;;;5116364;28;20680;-57
2022/12/31 00:08:49;;;;;;;3.72;1.27;;;13.70;99.90;;;;;;5116454;28;20165;-57
2022/12/31 00:11:18;;;;;;;1.92;1.30;;;13.70;99.90;;;;;;5116340;28;20247;-57
2022/12/31 00:13:45;;;;;;;1.92;1.40;;;13.70;99.90;;;;;;5116355;28;20256;-57
2022/12/31 00:16:22;;;;;;;1.70;1.25;;;13.70;99.90;;;;;;5116100;28;20235;-58
2022/12/31 00:18:51;;;;;;;2.13;1.50;;;13.70;99.90;;;;;;5116207;27;20630;-58
2022/12/31 00:21:18;;;;;;;2.00;1.00;;;13.70;99.90;;;;;;5115895;28;20169;-57
2022/12/31 00:23:47;;;;;;;3.40;1.58;;;13.70;99.90;;;;;;5114923;28;20170;-57
2022/12/31 00:26:18;;;;;;;2.50;1.20;;;13.70;99.90;;;;;;5115551;28;20268;-57
2022/12/31 00:28:44;;;;;;;1.30;1.20;;;13.70;99.90;;;;;;5115844;28;20179;-57
2022/12/31 00:31:19;;;;;;;1.30;1.20;;;13.70;99.90;;;;;;5115794;28;20271;-58
2022/12/31 00:33:45;;;;;;;1.75;1.13;;;13.70;99.90;;;;;;5116046;27;20173;-58
2022/12/31 00:36:13;;;;;;;2.55;1.00;;;13.60;99.90;;;;;;5115806;28;20607;-57
2022/12/31 00:38:44;;;;;;;1.95;1.00;;;13.50;99.90;;;;;;5115666;28;20645;-57
2022/12/31 00:41:11;;;;;;;2.28;1.00;;;13.50;99.90;;;;;;5115750;28;20177;-58
2022/12/31 00:43:37;;;;;;;0.80;0.80;;;13.40;99.90;;;;;;5115750;28;20242;-57
2022/12/31 00:46:05;;;;;;;1.13;1.00;;;13.40;99.90;;;;;;5115791;28;20185;-57
2022/12/31 00:48:31;;;;;;;0.77;0.77;;;13.30;99.90;;;;;;5115652;28;20169;-57
2022/12/31 00:50:58;;;;;;;0.90;0.90;;;13.40;99.90;;;;;;5115827;28;20169;-58
2022/12/31 00:53:24;;;;;;;1.30;0.80;;;13.40;99.90;;;;;;5115507;28;20200;-57
2022/12/31 00:55:51;;;;;;;1.25;0.80;;;13.30;99.90;;;;;;5115328;28;20185;-57
2022/12/31 00:58:16;;;;;;;1.42;0.80;;;13.30;99.90;;;;;;5115287;28;20219;-57
2022/12/31 01:00:42;;;;;;;1.00;0.68;;;13.30;99.90;;;;;;5115213;28;20174;-57
2022/12/31 01:03:11;;;;;;;0.82;0.60;;;13.30;99.90;;;;;;5115368;28;20622;-57
2022/12/31 01:05:36;;;;;;;0.80;0.80;;;13.20;99.90;;;;;;5115303;28;20618;-57
2022/12/31 01:08:03;;;;;;;3.28;0.88;;;13.20;99.90;;;;;;5115186;28;20226;-57
2022/12/31 01:13:12;;;;;;;1.27;0.70;;;13.20;99.90;;;;;;5115243;28;20181;-57
2022/12/31 01:15:38;;;;;;;0.60;0.60;;;13.20;99.90;;;;;;5115169;28;20173;-57
2022/12/31 01:18:06;;;;;;;0.60;0.60;;;13.20;99.90;;;;;;5114887;28;20254;-57
2022/12/31 01:20:36;;;;;;;0.60;0.60;;;13.20;99.90;;;;;;5114841;28;20192;-57
2022/12/31 01:23:02;;;;;;;1.27;0.80;;;13.10;99.90;;;;;;5114792;28;20177;-57
2022/12/31 01:25:28;;;;;;;0.88;0.88;;;13.00;99.90;;;;;;5114677;28;20169;-57
2022/12/31 01:27:57;;;;;;;0.95;0.70;;;13.10;99.90;;;;;;5114869;28;20507;-57
2022/12/31 01:30:23;;;;;;;3.70;1.00;;;13.20;99.90;;;;;;5114837;28;20173;-57
2022/12/31 01:32:48;;;;;;;1.52;0.80;;;13.30;99.90;;;;;;5114723;28;20174;-57
2022/12/31 01:35:14;;;;;;;1.00;0.90;;;13.20;99.90;;;;;;5114511;28;20626;-57
2022/12/31 01:37:40;;;;;;;1.45;1.02;;;13.10;99.90;;;;;;5114438;28;20207;-57
2022/12/31 01:40:05;;;;;;;1.25;0.90;;;13.10;99.90;;;;;;5114397;28;20185;-57
2022/12/31 01:42:31;;;;;;;2.53;1.00;;;13.20;99.90;;;;;;5114265;28;20507;-57
2022/12/31 01:44:57;;;;;;;1.45;1.00;;;13.20;99.90;;;;;;5114834;28;20271;-58
2022/12/31 01:47:36;;;;;;;2.08;0.90;;;13.20;99.90;;;;;;5114474;28;20623;-57
2022/12/31 01:50:29;;;;;;;1.33;1.10;;;13.20;99.90;;;;;;5113977;28;20176;-57
2022/12/31 01:53:02;;;;;;;0.80;0.80;;;13.20;99.90;;;;;;5114030;28;20545;-57
2022/12/31 01:55:34;;;;;;;1.95;0.90;;;13.10;99.90;;;;;;5114234;28;20173;-58
2022/12/31 01:58:05;;;;;;;0.90;0.80;;;13.10;99.90;;;;;;5114056;28;20292;-57
2022/12/31 02:00:31;;;;;;;1.15;0.98;;;13.20;99.90;;;;;;5114193;28;20173;-57
2022/12/31 02:02:57;;;;;;;1.88;1.05;;;13.20;99.90;;;;;;5114180;28;20256;-58
2022/12/31 02:05:38;;;;;;;2.55;0.93;;;13.20;99.90;;;;;;5114214;28;20626;-58
2022/12/31 02:08:05;;;;;;;2.15;1.10;;;13.20;99.90;;;;;;5114208;28;20177;-57
2022/12/31 02:10:31;;;;;;;1.30;0.88;;;13.20;99.90;;;;;;5113952;28;20192;-57
2022/12/31 02:12:58;;;;;;;0.80;0.70;;;13.30;99.90;;;;;;5114003;28;20173;-58
2022/12/31 02:15:33;;;;;;;1.77;0.90;;;13.20;99.90;;;;;;5113866;28;20215;-58
2022/12/31 02:18:07;;;;;;;1.42;0.80;;;13.20;99.90;;;;;;5114125;28;20231;-58
2022/12/31 02:20:42;;;;;;;3.38;0.80;;;13.30;99.90;;;;;;5113817;28;20689;-58
2022/12/31 02:23:30;;;;;;;0.82;0.80;;;13.30;99.90;;;;;;5113940;28;20526;-57
2022/12/31 02:26:28;;;;;;;2.13;0.70;;;13.40;99.90;;;;;;5113767;28;20173;-57
2022/12/31 02:29:25;;;;;;;0.65;0.57;;;13.30;99.90;;;;;;5114014;28;20242;-57
2022/12/31 02:32:01;;;;;;;0.60;0.60;;;13.20;99.90;;;;;;5113903;28;20165;-57
2022/12/31 02:34:35;;;;;;;2.08;0.70;;;13.20;99.90;;;;;;5113613;28;20185;-57
2022/12/31 02:37:04;;;;;;;2.00;0.70;;;13.20;99.90;;;;;;5113753;28;20591;-57
2022/12/31 02:39:31;;;;;;;0.77;0.70;;;13.20;99.90;;;;;;5113793;28;20165;-57
2022/12/31 02:41:59;;;;;;;1.05;0.70;;;13.20;99.90;;;;;;5113475;28;20230;-59
2022/12/31 02:44:33;;;;;;;2.25;0.70;;;13.10;99.90;;;;;;5113944;28;20193;-57
2022/12/31 02:47:06;;;;;;;0.77;0.60;;;13.10;99.90;;;;;;5113511;28;20184;-57
2022/12/31 02:49:40;;;;;;;0.68;0.65;;;13.10;99.90;;;;;;5113638;28;20188;-57
2022/12/31 02:52:09;;;;;;;2.22;0.70;;;13.10;99.90;;;;;;5113439;28;20169;-57
2022/12/31 02:54:53;;;;;;;0.55;0.55;;;13.10;99.90;;;;;;5113526;28;20170;-57
2022/12/31 02:57:33;;;;;;;1.65;0.70;;;13.20;99.90;;;;;;5113354;28;20271;-57
2022/12/31 03:02:53;;;;;;;1.20;0.80;;;13.20;99.90;;;;;;5117929;28;20733;-57
2022/12/31 03:05:23;;;;;;;1.00;0.82;;;13.30;99.90;;;;;;5117424;28;20181;-57
2022/12/31 03:07:49;;;;;;;1.10;0.63;;;13.40;99.90;;;;;;5117388;28;20744;-57
2022/12/31 03:10:15;;;;;;;1.95;0.95;;;13.40;99.90;;;;;;5117682;28;20169;-58
2022/12/31 03:12:45;;;;;;;1.35;0.90;;;13.30;99.90;;;;;;5117546;28;20170;-57
2022/12/31 03:15:32;;;;;;;1.98;0.88;;;13.20;99.90;;;;;;5116461;28;20530;-57
2022/12/31 03:18:04;;;;;;;3.88;0.93;;;13.20;99.90;;;;;;5117175;28;20215;-58
2022/12/31 03:23:30;;;;;;;3.40;1.13;;;13.30;99.90;;;;;;5117444;28;20591;-57
2022/12/31 03:25:57;;;;;;;3.22;1.33;;;13.40;99.90;;;;;;5117144;28;20169;-57
2022/12/31 03:28:25;;;;;;;5.95;1.45;;;13.50;99.90;;;;;;5116973;28;20206;-58
2022/12/31 03:30:55;;;;;;;4.93;1.25;;;13.70;99.90;;;;;;5117234;28;20173;-58
2022/12/31 03:33:21;;;;;;;3.13;1.33;;;13.70;99.90;;;;;;5117278;28;20210;-58
2022/12/31 03:35:48;;;;;;;5.85;1.40;;;13.80;99.90;;;;;;5116969;28;20173;-58
2022/12/31 03:38:14;;;;;;;4.57;1.40;;;13.80;99.90;;;;;;5116947;28;20224;-58
2022/12/31 03:40:46;;;;;;;4.72;1.20;;;13.90;99.90;;;;;;5116709;28;20230;-57
2022/12/31 03:43:12;;;;;;;4.18;1.25;;;14.00;99.90;;;;;;5116637;27;20225;-57
2022/12/31 03:45:38;;;;;;;7.82;1.45;;;14.00;99.90;;;;;;5116837;28;20631;-57
2022/12/31 03:48:05;;;;;;;1.98;1.30;;;14.10;99.90;;;;;;5116923;28;20178;-57
2022/12/31 03:50:31;;;;;;;6.65;1.38;;;14.00;99.90;;;;;;5116754;28;20165;-57
2022/12/31 03:52:57;;;;;;;6.30;1.50;;;14.10;99.90;;;;;;5116624;28;20637;-58
2022/12/31 03:55:24;;;;;;;4.95;1.20;;;14.10;99.90;;;;;;5116538;28;20184;-58
2022/12/31 03:57:50;;;;;;;4.70;1.20;;;14.20;99.90;;;;;;5116387;28;20236;-57
2022/12/31 04:00:17;;;;;;;3.40;1.30;;;14.20;99.90;;;;;;5116608;28;20200;-57
2022/12/31 04:02:44;;;;;;;5.28;1.52;;;14.20;99.90;;;;;;5116516;28;20201;-57
2022/12/31 04:05:11;;;;;;;5.30;1.08;;;14.20;99.90;;;;;;5116456;28;20261;-57
2022/12/31 04:07:36;;;;;;;3.72;1.20;;;14.30;99.90;;;;;;5116404;28;20199;-57
2022/12/31 04:10:07;;;;;;;5.43;1.23;;;14.30;99.90;;;;;;5116239;28;20169;-57
2022/12/31 04:12:33;;;;;;;3.33;1.00;;;14.30;99.90;;;;;;5115684;28;20719;-58
2022/12/31 04:14:58;;;;;;;3.20;1.13;;;14.30;99.90;;;;;;5116242;28;20177;-58
2022/12/31 04:17:24;;;;;;;2.90;1.15;;;14.30;99.90;;;;;;5115082;28;20257;-58
2022/12/31 04:19:50;;;;;;;2.97;1.23;;;14.30;99.90;;;;;;5116176;28;20181;-57
2022/12/31 04:22:16;;;;;;;5.82;1.13;;;14.30;99.90;;;;;;5116084;28;20260;-57
2022/12/31 04:24:42;;;;;;;2.03;1.08;;;14.30;99.90;;;;;;5115891;28;20625;-57
2022/12/31 04:27:09;;;;;;;3.45;1.10;;;14.30;99.90;;;;;;5115807;27;20173;-58
2022/12/31 04:29:35;;;;;;;1.92;1.10;;;14.40;99.90;;;;;;5116047;28;20180;-57
2022/12/31 04:32:02;;;;;;;4.07;1.17;;;14.40;99.90;;;;;;5114667;28;20177;-57
2022/12/31 04:34:31;;;;;;;2.63;1.17;;;14.40;99.90;;;;;;5115781;28;20260;-57
2022/12/31 04:36:56;;;;;;;2.85;1.05;;;14.50;99.90;;;;;;5115626;28;20201;-57
2022/12/31 04:39:24;;;;;;;3.13;1.20;;;14.50;99.90;;;;;;5115662;28;20180;-58
2022/12/31 04:41:50;;;;;;;1.65;0.90;;;14.50;99.90;;;;;;5115841;28;20260;-57
2022/12/31 04:44:16;;;;;;;1.50;0.90;;;14.50;99.90;;;;;;5115516;27;20227;-57
2022/12/31 04:46:42;;;;;;;3.55;1.00;;;14.50;99.90;;;;;;5115760;28;20185;-57
2022/12/31 04:49:12;;;;;;;3.83;1.25;;;14.50;99.90;;;;;;5115526;28;20201;-58
2022/12/31 04:51:38;;;;;;;2.55;1.05;;;14.60;99.90;;;;;;5115376;28;20207;-57
2022/12/31 04:54:04;;;;;;;4.43;1.00;;;14.60;99.90;;;;;;5115377;28;20181;-57
2022/12/31 04:56:31;;;;;;;2.35;0.93;;;14.60;99.90;;;;;;5115503;28;20231;-57
2022/12/31 04:58:56;;;;;;;1.83;0.68;;;14.60;99.90;;;;;;5115499;28;20543;-58
2022/12/31 05:01:22;;;;;;;2.88;0.93;;;14.60;99.90;;;;;;5115219;28;20176;-57
2022/12/31 05:03:48;;;;;;;2.97;0.90;;;14.70;99.90;;;;;;5115210;28;20181;-58
2022/12/31 05:06:19;;;;;;;2.88;0.80;;;14.70;99.90;;;;;;5115113;28;20177;-57
2022/12/31 05:08:45;;;;;;;1.73;0.80;;;14.70;99.90;;;;;;5115338;28;20173;-58
2022/12/31 05:11:11;;;;;;;1.90;0.70;;;14.60;99.90;;;;;;5115075;28;20178;-57
2022/12/31 05:13:37;;;;;;;2.40;0.90;;;14.60;99.90;;;;;;5115076;28;20173;-58
2022/12/31 05:16:04;;;;;;;4.05;0.80;;;14.70;99.90;;;;;;5114826;28;20177;-57
2022/12/31 05:18:31;;;;;;;1.48;0.75;;;14.60;99.90;;;;;;5114890;28;20642;-57
2022/12/31 05:20:57;;;;;;;2.33;0.80;;;14.60;99.90;;;;;;5114785;28;20530;-58
2022/12/31 05:23:23;;;;;;;3.72;0.80;;;14.60;99.90;;;;;;5114294;28;20169;-58
2022/12/31 05:25:49;;;;;;;2.97;0.80;;;14.60;99.90;;;;;;5114964;28;20226;-57
2022/12/31 05:28:15;;;;;;;1.90;0.80;;;14.70;99.90;;;;;;5114876;28;20213;-57
2022/12/31 05:30:42;;;;;;;3.80;0.68;;;14.70;99.90;;;;;;5114705;28;20177;-57
2022/12/31 05:33:07;;;;;;;3.47;0.90;;;14.80;99.90;;;;;;5114629;28;20535;-57
2022/12/31 05:35:33;;;;;;;2.45;0.80;;;14.80;99.90;;;;;;5114771;28;20176;-57
2022/12/31 05:38:00;;;;;;;2.45;0.80;;;14.80;99.90;;;;;;5114628;28;20263;-58
2022/12/31 05:40:26;;;;;;;2.35;0.88;;;14.90;99.90;;;;;;5114504;28;20564;-57
2022/12/31 05:42:52;;;;;;;3.30;0.77;;;14.80;99.90;;;;;;5114398;28;20174;-57
2022/12/31 05:45:18;;;;;;;3.17;0.77;;;14.90;99.90;;;;;;5114216;28;20196;-57
2022/12/31 05:47:44;;;;;;;4.55;0.82;;;14.90;99.90;;;;;;5113236;28;20573;-57
2022/12/31 05:50:12;;;;;;;4.55;0.90;;;14.90;99.90;;;;;;5114256;28;20173;-58
2022/12/31 05:52:38;;;;;;;2.03;0.70;;;14.90;99.90;;;;;;5114427;28;20177;-57
2022/12/31 05:55:04;;;;;;;1.92;0.90;;;15.00;99.90;;;;;;5114371;28;20169;-57
2022/12/31 05:57:30;;;;;;;1.85;0.60;;;15.00;99.90;;;;;;5113773;28;20201;-57
2022/12/31 05:59:55;;;;;;;2.92;0.70;;;14.90;99.90;;;;;;5114180;28;20204;-57
2022/12/31 06:02:21;;;;;;;1.98;0.80;;;15.00;99.90;;;;;;5114139;28;20165;-58
2022/12/31 06:04:47;;;;;;;0.77;0.60;;;15.00;99.90;;;;;;5112665;28;20246;-56
2022/12/31 06:07:13;;;;;;;2.45;0.70;;;15.00;99.90;;;;;;5114260;28;20234;-56
2022/12/31 06:09:38;;;;;;;1.60;0.70;;;15.00;99.90;;;;;;5113990;28;20173;-56
2022/12/31 06:12:04;;;;;;;1.90;0.50;;;15.10;99.90;;;;;;5114110;28;20189;-56
2022/12/31 06:14:30;;;;;;;1.92;0.60;;;15.20;99.90;;;;;;5113997;28;20657;-55
2022/12/31 06:16:56;;;;;;;2.97;1.00;;;15.20;99.90;;;;;;5113756;28;20201;-56
2022/12/31 06:19:21;;;;;;;2.42;0.70;;;15.20;99.90;;;;;;5113833;28;20181;-54
2022/12/31 06:21:47;;;;;;;2.00;0.60;;;15.20;99.90;;;;;;5114009;28;20174;-54
2022/12/31 06:24:13;;;;;;;3.00;0.68;;;15.20;99.90;;;;;;5114044;28;20173;-55
2022/12/31 06:26:39;;;;;;;3.83;1.00;;;15.20;99.90;;;;;;5113819;28;20188;-55
2022/12/31 06:29:04;;;;;;;2.08;0.88;;;15.20;99.90;;;;;;5113777;28;20606;-53
2022/12/31 06:31:31;;;;;;;3.47;0.75;;;15.20;99.90;;;;;;5112366;28;20169;-56
2022/12/31 06:33:56;;;;;;;2.67;1.00;;;15.20;99.90;;;;;;5113585;28;20173;-57
2022/12/31 06:36:22;;;;;;;2.78;1.02;;;15.20;99.90;;;;;;5113743;28;20201;-57
2022/12/31 06:38:49;;;;;;;1.83;0.70;;;15.30;99.90;;;;;;5113771;28;20230;-55
2022/12/31 06:41:17;;;;;;;1.63;0.80;;;15.30;99.90;;;;;;5113855;28;20259;-56
2022/12/31 06:43:46;;;;;;;1.80;1.00;;;15.30;99.90;;;;;;5113795;28;20254;-56
2022/12/31 06:46:15;;;;;;;4.30;0.93;;;15.30;99.90;;;;;;5113538;28;20173;-56
2022/12/31 06:48:43;;;;;;;2.30;0.85;;;15.30;99.90;;;;;;5113512;28;20257;-55
2022/12/31 06:51:14;;;;;;;3.70;0.90;;;15.20;99.90;;;;;;5113597;28;20181;-57
2022/12/31 06:53:40;;;;;;;2.58;1.00;;;15.20;99.90;;;;;;5113641;28;20276;-55
2022/12/31 06:56:14;;;;;;;3.10;1.00;;;15.30;99.90;;;;;;5113473;28;20173;-56
2022/12/31 06:58:44;;;;;;;3.45;1.20;;;15.30;99.90;;;;;;5113568;28;20170;-55
2022/12/31 07:01:30;;;;;;;3.08;1.10;;;15.40;99.90;;;;;;5113359;28;20218;-57
2022/12/31 07:04:11;;;;;;;3.42;0.90;;;15.40;99.90;;;;;;5081399;28;20762;-57
2022/12/31 07:06:50;;;;;;;3.50;0.95;;;15.30;99.90;;;;;;5113482;28;20243;-57
2022/12/31 07:09:31;;;;;;;2.75;0.98;;;15.30;99.90;;;;;;5113677;28;20551;-57
2022/12/31 07:12:03;;;;;;;2.30;0.90;;;15.40;99.90;;;;;;5110428;28;20184;-59
2022/12/31 07:14:39;;;;;;;2.25;0.77;;;15.40;99.90;;;;;;5111930;28;20193;-55
2022/12/31 07:17:32;;;;;;;1.73;0.70;;;15.40;99.90;;;;;;5112787;28;20207;-57
2022/12/31 07:20:09;;;;;;;3.08;1.05;;;15.50;99.90;;;;;;5113174;28;20173;-57
2022/12/31 07:22:35;;;;;;;2.33;1.20;;;15.40;99.90;;;;;;5111804;28;20169;-57
2022/12/31 07:25:01;;;;;;;7.13;1.13;;;15.50;99.90;;;;;;5112949;28;20538;-55
2022/12/31 07:27:32;;;;;;;5.22;1.00;;;15.30;99.90;;;;;;5112920;28;20568;-55
2022/12/31 07:30:00;;;;;;;3.65;1.17;;;15.40;99.90;;;;;;5112876;28;20699;-57
2022/12/31 07:32:26;;;;;;;3.85;0.82;;;15.40;99.90;;;;;;5112769;28;20173;-55
2022/12/31 07:35:10;;;;;;;4.65;1.17;;;15.30;99.90;;;;;;5113054;28;20173;-55
2022/12/31 07:38:01;;;;;;;4.63;1.15;;;15.30;99.90;;;;;;5111898;28;20197;-57
2022/12/31 07:40:58;;;;;;;2.25;0.82;;;15.30;99.90;;;;;;5112761;28;20508;-57
2022/12/31 07:43:41;;;;;;;1.77;0.90;;;15.30;99.90;;;;;;5108302;28;20194;-55
2022/12/31 07:46:52;;;;;;;4.30;1.30;;;15.30;99.90;;;;;;5112797;28;20173;-55
2022/12/31 07:49:18;;;;;;;2.40;0.93;;;15.20;99.90;;;;;;5083548;28;20177;-54
2022/12/31 07:51:44;;;;;;;2.22;1.02;;;15.20;99.90;;;;;;5096376;28;20643;-57
2022/12/31 07:54:10;;;;;;;3.05;1.10;;;15.30;99.90;;;;;;5095952;28;20184;-55
2022/12/31 07:56:35;;;;;;;2.70;0.90;;;15.30;99.90;;;;;;5094632;28;20213;-57
2022/12/31 07:59:25;;;;;;;4.00;1.20;;;15.40;99.90;;;;;;5096064;28;20543;-55
2022/12/31 08:02:12;;;;;;;5.28;1.30;;;15.30;99.90;;;;;;5096020;28;20169;-56
2022/12/31 08:05:10;;;;;;;1.98;0.88;;;15.20;99.90;;;;;;5096129;28;20261;-55
2022/12/31 08:08:07;;;;;;;3.22;1.00;;;15.20;99.90;;;;;;5096120;28;20170;-56
2022/12/31 08:10:42;;;;;;;2.15;0.90;;;15.20;99.90;;;;;;5077772;28;20185;-55
2022/12/31 08:13:10;;;;;;;4.80;1.15;;;15.20;99.90;;;;;;5095884;28;20165;-55
2022/12/31 08:15:39;;;;;;;3.38;1.10;;;15.20;99.90;;;;;;5095692;28;20657;-54
2022/12/31 08:18:06;;;;;;;2.28;0.95;;;15.20;99.90;;;;;;5095550;28;20674;-55
2022/12/31 08:20:35;;;;;;;2.17;1.02;;;15.10;99.90;;;;;;5095586;28;20182;-57
2022/12/31 08:23:03;;;;;;;3.75;1.15;;;15.20;99.90;;;;;;5095837;28;20220;-55
2022/12/31 08:25:47;;;;;;;4.93;1.30;;;15.20;99.90;;;;;;5096004;28;20253;-55
2022/12/31 08:28:42;;;;;;;3.30;1.10;;;15.20;99.90;;;;;;5095645;28;20178;-55
2022/12/31 08:31:23;;;;;;;3.45;1.08;;;15.20;99.90;;;;;;5095703;28;20174;-55
2022/12/31 08:34:26;;;;;;;4.47;1.40;;;15.10;99.90;;;;;;5095570;28;20238;-57
2022/12/31 08:37:06;;;;;;;3.88;1.20;;;15.00;99.90;;;;;;5095268;28;20198;-57
2022/12/31 08:39:59;;;;;;;3.28;1.10;;;15.10;99.90;;;;;;5095539;28;20191;-57
2022/12/31 08:42:38;;;;;;;6.30;1.15;;;15.10;99.90;;;;;;5095251;28;20174;-56
2022/12/31 08:45:22;;;;;;;6.18;1.33;;;15.10;99.90;;;;;;5095319;28;20271;-55
2022/12/31 08:47:48;;;;;;;4.88;1.20;;;15.10;99.90;;;;;;5095472;28;20170;-54
2022/12/31 08:50:16;;;;;;;3.55;1.15;;;15.10;99.90;;;;;;5095316;28;20515;-54
2022/12/31 08:52:42;;;;;;;5.78;1.20;;;15.20;99.90;;;;;;5095344;28;20550;-57
2022/12/31 08:55:15;;;;;;;3.08;1.33;;;15.20;99.90;;;;;;5095068;28;20264;-54
2022/12/31 08:58:00;;;;;;;4.88;1.55;;;15.20;99.90;;;;;;5096753;28;20209;-54
2022/12/31 09:00:27;;;;;;;2.88;1.20;;;15.30;99.90;;;;;;5094623;28;20166;-56
2022/12/31 09:03:08;;;;;;;2.70;1.13;;;15.30;99.90;;;;;;5094971;28;20643;-55
2022/12/31 09:06:05;;;;;;;4.03;1.52;;;15.40;99.90;;;;;;5094787;28;20252;-56
2022/12/31 09:08:46;;;;;;;3.38;1.02;;;15.40;99.90;;;;;;5094804;28;20176;-55
2022/12/31 09:11:21;;;;;;;4.88;1.10;;;15.40;99.90;;;;;;5094976;28;20204;-55
2022/12/31 09:14:03;;;;;;;4.68;1.15;;;15.50;99.90;;;;;;5094813;28;20193;-56
2022/12/31 09:16:38;;;;;;;4.00;1.60;;;15.60;99.90;;;;;;5094544;28;20241;-54
2022/12/31 09:19:03;;;;;;;2.97;1.17;;;15.60;99.90;;;;;;5094777;28;20174;-54
2022/12/31 09:21:31;;;;;;;3.92;1.33;;;15.70;99.90;;;;;;5094628;28;20257;-55
2022/12/31 09:23:57;;;;;;;2.72;1.20;;;15.70;99.90;;;;;;5094511;28;20178;-56
2022/12/31 09:27:01;;;;;;;4.28;1.65;;;15.70;99.90;;;;;;5094385;28;20207;-55
2022/12/31 09:29:41;;;;;;;3.95;1.30;;;15.70;99.90;;;;;;5094596;28;20264;-54
2022/12/31 09:32:24;;;;;;;5.72;1.40;;;15.60;99.90;;;;;;5094352;28;20162;-55
2022/12/31 09:34:59;;;;;;;2.50;1.35;;;15.60;99.90;;;;;;5094341;28;20165;-56
2022/12/31 09:37:34;;;;;;;5.28;1.40;;;15.70;99.90;;;;;;5094014;28;20193;-55
2022/12/31 09:40:21;;;;;;;2.78;1.20;;;15.70;99.90;;;;;;5103372;28;20626;-54
2022/12/31 09:42:54;;;;;;;3.47;1.50;;;15.70;99.90;;;;;;5114228;28;20174;-54
2022/12/31 09:45:43;;;;;;;5.50;1.48;;;15.80;99.90;;;;;;5114556;28;20180;-55
2022/12/31 09:48:46;;;;;;;5.80;1.77;;;15.70;99.90;;;;;;5114557;28;20200;-56
2022/12/31 09:51:49;;;;;;;5.97;1.55;;;15.80;99.90;;;;;;5114371;28;20177;-55
2022/12/31 09:54:21;;;;;;;5.05;1.42;;;15.90;99.90;;;;;;5062506;28;20234;-56
2022/12/31 09:57:13;;;;;;;5.10;1.40;;;15.80;99.90;;;;;;5114403;28;20251;-55
2022/12/31 10:00:00;;;;;;;4.65;1.60;;;15.80;99.90;;;;;;5114293;28;20173;-54
2022/12/31 10:02:34;;;;;;;4.07;1.42;;;15.90;99.90;;;;;;5114299;28;20492;-55
2022/12/31 10:05:34;;;;;;;4.50;1.35;;;15.80;99.90;;;;;;5114228;28;20172;-55
2022/12/31 10:08:20;;;;;;;4.93;1.30;;;15.70;99.90;;;;;;5114154;28;20630;-54
2022/12/31 10:11:19;;;;;;;6.15;1.40;;;15.70;99.90;;;;;;5102529;28;20188;-54
2022/12/31 10:14:15;;;;;;;5.43;1.40;;;15.70;99.90;;;;;;5058546;28;20670;-56
2022/12/31 10:17:18;;;;;;;6.75;1.48;;;15.70;99.90;;;;;;5113885;28;20228;-53
2022/12/31 10:19:56;;;;;;;8.02;1.70;;;15.70;99.90;;;;;;5113758;28;20177;-54
2022/12/31 10:22:59;;;;;;;174.18;12.85;;;15.70;99.90;;;;;;5113299;28;20185;-51
2022/12/31 10:25:44;;;;;;;3.33;1.30;;;17.40;99.90;;;;;;5113738;28;20177;-55
2022/12/31 10:28:40;;;;;;;8.65;1.33;;;16.20;99.90;;;;;;5113780;28;20218;-56
2022/12/31 10:31:19;;;;;;;3.80;1.73;;;16.00;99.90;;;;;;5113778;28;20169;-56
2022/12/31 10:34:13;;;;;;;4.68;1.40;;;16.00;99.90;;;;;;5113610;28;20161;-56
2022/12/31 10:36:53;;;;;;;4.65;1.30;;;16.00;99.90;;;;;;5113834;28;20554;-55
2022/12/31 10:39:56;;;;;;;5.15;1.63;;;15.90;99.90;;;;;;5113844;28;20206;-56
2022/12/31 10:42:52;;;;;;;3.97;1.20;;;15.80;99.90;;;;;;5113601;28;20173;-56
2022/12/31 10:45:39;;;;;;;6.55;2.08;;;15.70;99.90;;;;;;5113681;28;20638;-55
2022/12/31 10:49:06;;;;;;;5.57;1.70;;;15.70;99.90;;;;;;5113576;28;20252;-56
2022/12/31 10:51:40;;;;;;;4.90;1.55;;;15.70;99.90;;;;;;5035233;28;20274;-56
2022/12/31 10:54:36;;;;;;;6.47;1.50;;;15.60;99.90;;;;;;5113223;28;20172;-56
2022/12/31 10:57:15;;;;;;;7.07;1.73;;;15.50;99.90;;;;;;5113036;28;20273;-55
2022/12/31 10:59:53;;;;;;;7.28;1.80;;;15.50;99.90;;;;;;5113622;28;20173;-55
2022/12/31 11:02:35;;;;;;;6.68;1.50;;;15.60;99.90;;;;;;5113545;28;20252;-55
2022/12/31 11:05:26;;;;;;;7.28;1.80;;;15.60;99.90;;;;;;5113424;28;20658;-56
2022/12/31 11:08:25;;;;;;;4.50;1.65;;;15.70;99.90;;;;;;5113281;28;20504;-56
2022/12/31 11:11:02;;;;;;;5.10;1.60;;;15.60;99.90;;;;;;5113305;28;20672;-56
2022/12/31 11:13:52;;;;;;;5.38;1.80;;;15.80;99.90;;;;;;5113089;28;20200;-56
2022/12/31 11:16:49;;;;;;;8.07;1.90;;;15.70;99.90;;;;;;5113262;28;20654;-55
2022/12/31 11:19:26;;;;;;;4.35;1.48;;;15.70;99.90;;;;;;5113196;28;20165;-56
2022/12/31 11:22:06;;;;;;;3.38;1.60;;;15.80;99.90;;;;;;5114127;28;20183;-56
2022/12/31 11:24:50;;;;;;;6.75;1.58;;;15.70;99.90;;;;;;5117183;28;20268;-55
2022/12/31 11:27:25;;;;;;;4.72;1.38;;;15.60;99.90;;;;;;5117011;28;20173;-56
2022/12/31 11:29:51;;;;;;;6.97;1.63;;;15.60;99.90;;;;;;5116999;27;20176;-55
2022/12/31 11:32:31;;;;;;;4.82;1.42;;;15.60;99.90;;;;;;5116885;28;20243;-55
2022/12/31 11:35:21;;;;;;;5.63;1.50;;;15.60;99.90;;;;;;5117055;28;20165;-57
2022/12/31 11:37:53;;;;;;;6.90;1.95;;;15.60;99.90;;;;;;5114666;28;20238;-56
2022/12/31 11:40:42;;;;;;;6.10;1.77;;;15.70;99.90;;;;;;5115814;28;20189;-56
2022/12/31 11:43:31;;;;;;;3.13;1.52;;;15.70;99.90;;;;;;5116874;28;20208;-56
2022/12/31 11:46:20;;;;;;;4.30;1.70;;;15.70;99.90;;;;;;5115656;28;20179;-54
2022/12/31 11:48:54;;;;;;;5.28;1.50;;;15.60;99.90;;;;;;5116499;28;20162;-56
2022/12/31 11:51:24;;;;;;;4.53;1.63;;;15.60;99.90;;;;;;5116663;28;20200;-56
2022/12/31 11:54:11;;;;;;;4.10;1.67;;;15.50;99.90;;;;;;5116759;28;20256;-54
2022/12/31 11:56:40;;;;;;;5.88;1.60;;;15.60;99.90;;;;;;5116562;28;20204;-55
2022/12/31 11:59:10;;;;;;;4.85;1.70;;;15.50;99.90;;;;;;5116743;28;20260;-54
2022/12/31 12:01:59;;;;;;;5.00;1.63;;;15.50;99.90;;;;;;5115354;28;20184;-56
2022/12/31 12:04:25;;;;;;;7.25;1.83;;;15.50;99.90;;;;;;5116383;28;20673;-54
2022/12/31 12:06:52;;;;;;;6.65;2.00;;;15.50;99.90;;;;;;5116440;28;20196;-55
2022/12/31 12:09:29;;;;;;;5.28;1.42;;;15.50;99.90;;;;;;5116319;28;20200;-55
2022/12/31 12:12:01;;;;;;;5.63;1.70;;;15.50;99.90;;;;;;5116557;28;20167;-55
2022/12/31 12:14:39;;;;;;;5.93;1.67;;;15.60;99.90;;;;;;5116365;28;20181;-56
2022/12/31 12:17:25;;;;;;;5.95;1.80;;;15.50;99.90;;;;;;5116286;28;20686;-55
2022/12/31 12:19:54;;;;;;;5.72;1.70;;;15.60;99.90;;;;;;5116137;28;20173;-55
2022/12/31 12:22:26;;;;;;;3.83;1.50;;;15.70;99.90;;;;;;5115893;28;20534;-55
2022/12/31 12:25:04;;;;;;;6.20;1.65;;;15.60;99.90;;;;;;5116216;28;20187;-56
2022/12/31 12:27:33;;;;;;;8.23;1.60;;;15.60;99.90;;;;;;5116041;28;20177;-54
2022/12/31 12:30:08;;;;;;;3.38;1.70;;;15.70;99.90;;;;;;5115975;28;20162;-54
2022/12/31 12:32:34;;;;;;;4.40;1.70;;;15.70;99.90;;;;;;5115521;28;20173;-52
2022/12/31 12:35:00;;;;;;;4.35;1.75;;;15.80;99.90;;;;;;5115824;28;20169;-53
2022/12/31 12:37:35;;;;;;;5.40;1.70;;;15.90;99.90;;;;;;5115905;28;20205;-52
2022/12/31 12:40:08;;;;;;;8.25;1.90;;;15.90;99.90;;;;;;5115803;28;20183;-54
2022/12/31 12:42:34;;;;;;;6.97;2.00;;;15.90;99.90;;;;;;5115662;28;20166;-53
2022/12/31 12:45:14;;;;;;;5.10;1.80;;;15.90;99.90;;;;;;5114389;28;20185;-50
2022/12/31 12:47:42;;;;;;;8.25;2.03;;;16.00;99.90;;;;;;5115801;28;20169;-51
2022/12/31 12:50:21;;;;;;;8.13;1.98;;;16.00;99.90;;;;;;5115610;28;20260;-53
2022/12/31 12:52:49;;;;;;;5.30;1.73;;;16.00;99.90;;;;;;5115558;28;20176;-53
2022/12/31 12:55:37;;;;;;;3.50;1.50;;;16.00;99.90;;;;;;5115334;28;20169;-50
2022/12/31 12:58:27;;;;;;;6.53;1.75;;;15.90;99.90;;;;;;5115646;28;20624;-53
2022/12/31 13:00:56;;;;;;;7.28;1.70;;;15.90;99.90;;;;;;5115465;28;20169;-53
2022/12/31 13:03:44;;;;;;;5.85;1.88;;;15.90;99.90;;;;;;5115259;28;20305;-54
2022/12/31 13:06:21;;;;;;;5.38;1.75;;;15.90;99.90;;;;;;5114366;28;20622;-53
2022/12/31 13:09:11;;;;;;;8.05;1.98;;;16.00;99.90;;;;;;5114928;28;20176;-51
2022/12/31 13:11:59;;;;;;;6.20;2.30;;;16.10;99.90;;;;;;5115253;28;20611;-53
2022/12/31 13:14:35;;;;;;;9.40;2.45;;;16.10;99.90;;;;;;5115024;28;20619;-50
2022/12/31 13:17:33;;;;;;;6.63;2.40;;;16.10;99.90;;;;;;5114933;28;20238;-52
2022/12/31 13:20:10;;;;;;;6.90;2.35;;;16.10;99.90;;;;;;5115172;28;20162;-52
2022/12/31 13:22:50;;;;;;;5.55;2.03;;;16.10;99.90;;;;;;5115219;28;20172;-54
2022/12/31 13:25:28;;;;;;;6.82;2.13;;;16.10;99.90;;;;;;5115030;28;20225;-53
2022/12/31 13:27:59;;;;;;;9.38;2.58;;;16.20;99.90;;;;;;5114956;28;20201;-53
2022/12/31 13:30:30;;;;;;;9.20;2.75;;;16.20;99.90;;;;;;5114907;28;20165;-53